Time;durP1;ratioP1;P1;durP2;ratioP2;P2;SDS_P1;SDS_P2;PMS_P1;PMS_P2;Temp;Humidity;BMP_temperature;BMP_pressure;BME280_temperature;BME280_humidity;BME280_pressure;Samples;Min_cycle;Max_cycle;Signal;HPM_P1;HPM_P2
2023/06/14 00:00:14;;;;;;;6.47;5.80;;;;;;;;;;10297963;28;20101;-85
2023/06/14 00:05:15;;;;;;;5.93;5.40;;;;;;;;;;10321255;28;20880;-84
2023/06/14 00:10:15;;;;;;;6.05;5.22;;;;;;;;;;10298259;28;20130;-80
2023/06/14 00:15:16;;;;;;;7.03;5.43;;;;;;;;;;10317113;28;20038;-81
2023/06/14 00:20:16;;;;;;;7.72;5.85;;;;;;;;;;10362679;28;21523;-83
2023/06/14 00:25:16;;;;;;;6.53;5.23;;;;;;;;;;10366391;28;20040;-81
2023/06/14 00:30:17;;;;;;;5.85;5.28;;;;;;;;;;10347597;28;20356;-83
2023/06/14 00:35:17;;;;;;;5.60;5.10;;;;;;;;;;10326228;28;20165;-84
2023/06/14 00:40:18;;;;;;;6.07;5.57;;;;;;;;;;10335604;28;20285;-84
2023/06/14 00:45:21;;;;;;;6.90;5.35;;;;;;;;;;10341986;28;20042;-83
2023/06/14 00:50:23;;;;;;;6.13;5.53;;;;;;;;;;10351518;28;20059;-83
2023/06/14 00:55:23;;;;;;;6.25;5.60;;;;;;;;;;10326488;28;20042;-83
2023/06/14 01:00:28;;;;;;;5.93;5.35;;;;;;;;;;10348841;28;20268;-82
2023/06/14 01:05:30;;;;;;;7.82;6.30;;;;;;;;;;10367025;28;20096;-78
2023/06/14 01:10:43;;;;;;;7.65;6.28;;;;;;;;;;10335113;28;20356;-79
2023/06/14 01:15:46;;;;;;;6.53;5.68;;;;;;;;;;10349640;28;20050;-80
2023/06/14 01:20:50;;;;;;;7.05;6.35;;;;;;;;;;10351871;28;20042;-80
2023/06/14 01:25:55;;;;;;;7.15;6.05;;;;;;;;;;10347068;28;20034;-82
2023/06/14 01:30:55;;;;;;;8.00;5.80;;;;;;;;;;10358067;28;20054;-82
2023/06/14 01:35:57;;;;;;;6.90;6.20;;;;;;;;;;10342039;28;20046;-84
2023/06/14 01:40:59;;;;;;;7.38;6.25;;;;;;;;;;10358838;28;20049;-85
2023/06/14 01:46:00;;;;;;;7.55;6.22;;;;;;;;;;10359172;28;20030;-81
2023/06/14 01:51:11;;;;;;;6.60;5.90;;;;;;;;;;10391415;26;20102;-81
2023/06/14 01:56:11;;;;;;;6.37;5.77;;;;;;;;;;10407974;28;20045;-81
2023/06/14 02:01:12;;;;;;;6.60;6.00;;;;;;;;;;10399144;28;20547;-83
2023/06/14 02:06:13;;;;;;;8.25;6.43;;;;;;;;;;10383061;28;20647;-82
2023/06/14 02:11:14;;;;;;;6.93;5.95;;;;;;;;;;10395059;28;20732;-84
2023/06/14 02:16:16;;;;;;;7.25;6.60;;;;;;;;;;10387018;28;20148;-81
2023/06/14 02:21:18;;;;;;;7.10;6.40;;;;;;;;;;10372740;28;20410;-80
2023/06/14 02:26:20;;;;;;;6.75;5.93;;;;;;;;;;10395515;28;20045;-81
2023/06/14 02:31:20;;;;;;;6.93;6.22;;;;;;;;;;10381588;28;20045;-82
2023/06/14 02:36:23;;;;;;;7.27;6.50;;;;;;;;;;10374395;28;20741;-79
2023/06/14 02:41:26;;;;;;;8.45;6.35;;;;;;;;;;10356155;28;20303;-79
2023/06/14 02:46:27;;;;;;;6.55;5.72;;;;;;;;;;10356300;28;20045;-79
2023/06/14 02:51:28;;;;;;;7.53;6.47;;;;;;;;;;10355135;28;20042;-78
2023/06/14 02:56:29;;;;;;;8.45;6.80;;;;;;;;;;10347494;28;20038;-79
2023/06/14 03:01:33;;;;;;;8.67;6.27;;;;;;;;;;10339268;28;20548;-80
2023/06/14 03:06:37;;;;;;;6.68;5.97;;;;;;;;;;10341436;28;20458;-81
2023/06/14 03:11:38;;;;;;;6.45;5.72;;;;;;;;;;10320475;28;20065;-80
2023/06/14 03:16:41;;;;;;;7.47;5.95;;;;;;;;;;10339068;28;20073;-79
2023/06/14 03:21:44;;;;;;;7.32;6.00;;;;;;;;;;10344923;28;20518;-81
2023/06/14 03:26:45;;;;;;;8.85;5.82;;;;;;;;;;10321720;28;20049;-79
2023/06/14 03:31:57;;;;;;;7.28;5.40;;;;;;;;;;10340337;28;20046;-84
2023/06/14 03:36:59;;;;;;;7.03;6.30;;;;;;;;;;10338233;28;20046;-83
2023/06/14 03:41:59;;;;;;;7.00;5.95;;;;;;;;;;10350086;28;20057;-82
2023/06/14 03:47:00;;;;;;;6.70;6.00;;;;;;;;;;10348062;28;20053;-83
2023/06/14 03:52:02;;;;;;;8.02;6.60;;;;;;;;;;10348960;28;20056;-82
2023/06/14 03:57:03;;;;;;;6.32;5.68;;;;;;;;;;10368336;28;20042;-82
2023/06/14 04:02:05;;;;;;;6.75;5.97;;;;;;;;;;10366988;28;20109;-80
2023/06/14 04:07:08;;;;;;;7.55;5.70;;;;;;;;;;10357215;28;20045;-78
2023/06/14 04:12:11;;;;;;;6.80;5.78;;;;;;;;;;10385374;28;20052;-81
2023/06/14 04:17:11;;;;;;;7.65;6.45;;;;;;;;;;10392424;28;20578;-81
2023/06/14 04:22:13;;;;;;;6.32;5.60;;;;;;;;;;10381978;28;20038;-81
2023/06/14 04:27:21;;;;;;;5.93;5.32;;;;;;;;;;10402161;28;20046;-81
2023/06/14 04:32:25;;;;;;;6.05;5.45;;;;;;;;;;10341954;28;20049;-79
2023/06/14 04:37:30;;;;;;;6.60;5.90;;;;;;;;;;10335495;28;20046;-84
2023/06/14 04:42:32;;;;;;;6.50;5.82;;;;;;;;;;10338292;28;20071;-83
2023/06/14 04:47:37;;;;;;;7.28;6.10;;;;;;;;;;10387587;28;20033;-82
2023/06/14 04:52:40;;;;;;;7.57;5.82;;;;;;;;;;10402503;28;20102;-84
2023/06/14 04:57:42;;;;;;;7.68;6.03;;;;;;;;;;10375631;28;20545;-89
2023/06/14 05:02:44;;;;;;;6.45;5.80;;;;;;;;;;10389056;28;20823;-89
2023/06/14 05:07:45;;;;;;;7.10;6.20;;;;;;;;;;10351052;28;20061;-85
2023/06/14 05:12:59;;;;;;;8.05;7.03;;;;;;;;;;10358602;28;20108;-91
2023/06/14 05:18:03;;;;;;;5.97;5.38;;;;;;;;;;10338390;28;20819;-87
2023/06/14 05:23:05;;;;;;;6.20;5.55;;;;;;;;;;10329607;28;20064;-89
2023/06/14 05:28:07;;;;;;;5.57;5.03;;;;;;;;;;10396364;28;20475;-83
2023/06/14 05:33:10;;;;;;;6.40;5.78;;;;;;;;;;10374377;28;20033;-84
2023/06/14 05:38:11;;;;;;;6.53;5.72;;;;;;;;;;10387314;28;20057;-87
2023/06/14 05:43:11;;;;;;;6.80;5.90;;;;;;;;;;10546803;23;20039;-88
2023/06/14 05:48:13;;;;;;;6.20;5.60;;;;;;;;;;10327688;28;20289;-88
2023/06/14 05:53:14;;;;;;;6.72;5.68;;;;;;;;;;10332009;28;20030;-86
2023/06/14 05:58:37;;;;;;;6.70;5.95;;;;;;;;;;10317195;28;20122;-88
2023/06/14 06:03:38;;;;;;;8.43;6.03;;;;;;;;;;10623871;23;20054;-84
2023/06/14 06:08:40;;;;;;;6.28;5.68;;;;;;;;;;10383275;23;20042;-86
2023/06/14 06:13:41;;;;;;;6.53;5.33;;;;;;;;;;10352291;28;20068;-86
2023/06/14 06:18:42;;;;;;;6.50;5.38;;;;;;;;;;10291882;28;20050;-73
2023/06/14 06:23:42;;;;;;;5.97;5.33;;;;;;;;;;10300477;28;20078;-75
2023/06/14 06:28:44;;;;;;;5.93;5.03;;;;;;;;;;10301260;28;20042;-72
2023/06/14 06:33:44;;;;;;;6.53;5.07;;;;;;;;;;10297764;28;20128;-75
2023/06/14 06:38:45;;;;;;;6.63;5.50;;;;;;;;;;10296998;28;20286;-74
2023/06/14 06:43:45;;;;;;;5.90;5.18;;;;;;;;;;10300339;28;20062;-75
2023/06/14 06:48:47;;;;;;;6.00;5.23;;;;;;;;;;10269810;28;20436;-74
2023/06/14 06:53:52;;;;;;;5.70;5.17;;;;;;;;;;10254167;28;20051;-73
2023/06/14 06:58:53;;;;;;;6.25;5.22;;;;;;;;;;10260992;28;20055;-72
2023/06/14 07:03:53;;;;;;;5.73;5.07;;;;;;;;;;10303256;28;20062;-76
2023/06/14 07:08:54;;;;;;;6.57;4.93;;;;;;;;;;10308701;28;20294;-74
2023/06/14 07:13:54;;;;;;;6.25;5.07;;;;;;;;;;10300877;28;20759;-80
2023/06/14 07:18:55;;;;;;;6.57;4.63;;;;;;;;;;10270035;28;20123;-76
2023/06/14 07:23:55;;;;;;;6.63;5.15;;;;;;;;;;10259389;28;20058;-77
2023/06/14 07:28:56;;;;;;;6.15;4.95;;;;;;;;;;10269968;28;20069;-77
2023/06/14 07:33:56;;;;;;;5.10;4.60;;;;;;;;;;10263475;28;20031;-84
2023/06/14 07:38:56;;;;;;;8.70;5.30;;;;;;;;;;10322056;28;20050;-83
2023/06/14 07:43:57;;;;;;;6.20;5.15;;;;;;;;;;10306848;28;20063;-84
2023/06/14 07:49:01;;;;;;;5.38;4.88;;;;;;;;;;10321210;28;20054;-86
2023/06/14 07:54:08;;;;;;;5.70;5.10;;;;;;;;;;10337012;28;20035;-86
2023/06/14 07:59:11;;;;;;;6.40;5.05;;;;;;;;;;10309663;28;20066;-84
2023/06/14 08:04:14;;;;;;;6.30;5.13;;;;;;;;;;10288247;28;20157;-81
2023/06/14 08:09:15;;;;;;;7.28;5.00;;;;;;;;;;10280707;28;20058;-83
2023/06/14 08:14:16;;;;;;;5.57;5.07;;;;;;;;;;10354617;28;20059;-83
2023/06/14 08:19:16;;;;;;;6.63;4.57;;;;;;;;;;10370987;28;20061;-83
2023/06/14 08:24:18;;;;;;;5.22;4.53;;;;;;;;;;10389718;28;20054;-83
2023/06/14 08:29:19;;;;;;;5.93;4.32;;;;;;;;;;10399079;28;20164;-81
2023/06/14 08:34:29;;;;;;;5.60;5.00;;;;;;;;;;10367352;28;20414;-87
2023/06/14 08:39:31;;;;;;;6.05;4.80;;;;;;;;;;10372191;28;20050;-82
2023/06/14 08:44:32;;;;;;;5.10;4.38;;;;;;;;;;10363374;28;20108;-82
2023/06/14 08:49:34;;;;;;;5.32;4.65;;;;;;;;;;10354194;28;20046;-81
2023/06/14 08:54:43;;;;;;;6.43;4.67;;;;;;;;;;10356898;28;20049;-84
2023/06/14 08:59:49;;;;;;;5.65;4.38;;;;;;;;;;10354854;28;20124;-85
2023/06/14 09:04:52;;;;;;;5.47;4.60;;;;;;;;;;10360453;28;20447;-85
2023/06/14 09:10:06;;;;;;;4.65;4.13;;;;;;;;;;10392285;28;20049;-84
2023/06/14 09:15:08;;;;;;;7.15;4.68;;;;;;;;;;10352293;28;20177;-85
2023/06/14 09:20:18;;;;;;;;;;;;;;;;;;10369652;28;20073;-82
2023/06/14 09:25:20;;;;;;;5.43;4.63;;;;;;;;;;10377339;28;19925;-83
2023/06/14 09:30:21;;;;;;;6.75;4.60;;;;;;;;;;10386847;28;20077;-83
2023/06/14 09:35:22;;;;;;;4.90;4.30;;;;;;;;;;10404017;28;20030;-85
2023/06/14 09:40:23;;;;;;;5.28;4.50;;;;;;;;;;10409855;28;20046;-86
2023/06/14 09:45:46;;;;;;;5.65;5.05;;;;;;;;;;10361632;28;20521;-85
2023/06/14 09:50:49;;;;;;;5.35;4.13;;;;;;;;;;10346477;28;20053;-81
2023/06/14 09:56:11;;;;;;;6.65;4.80;;;;;;;;;;10367811;28;20045;-83
2023/06/14 10:01:13;;;;;;;4.72;4.07;;;;;;;;;;10355651;28;20053;-84
2023/06/14 10:06:14;;;;;;;4.68;3.70;;;;;;;;;;10344380;28;20057;-86
2023/06/14 10:11:17;;;;;;;5.82;4.38;;;;;;;;;;10358855;28;20068;-82
2023/06/14 10:16:17;;;;;;;6.03;4.55;;;;;;;;;;10371458;28;20654;-85
2023/06/14 10:21:31;;;;;;;5.50;3.92;;;;;;;;;;10368990;28;20053;-80
2023/06/14 10:26:34;;;;;;;4.72;4.32;;;;;;;;;;10353039;28;20061;-82
2023/06/14 10:31:58;;;;;;;6.20;4.45;;;;;;;;;;10362959;28;20050;-81
2023/06/14 10:37:03;;;;;;;5.63;4.10;;;;;;;;;;10348376;28;20176;-81
2023/06/14 10:42:05;;;;;;;4.68;4.15;;;;;;;;;;10369325;28;20128;-84
2023/06/14 10:47:31;;;;;;;6.53;4.40;;;;;;;;;;10379434;28;20042;-79
2023/06/14 10:52:35;;;;;;;6.53;4.13;;;;;;;;;;10396625;28;20037;-81
2023/06/14 10:57:36;;;;;;;7.20;4.20;;;;;;;;;;10361320;28;20038;-81
2023/06/14 11:02:36;;;;;;;5.32;4.00;;;;;;;;;;10355374;28;20050;-77
2023/06/14 11:07:40;;;;;;;8.07;4.10;;;;;;;;;;10349748;28;20047;-77
2023/06/14 11:12:45;;;;;;;5.07;4.20;;;;;;;;;;10348331;28;20145;-77
2023/06/14 11:17:56;;;;;;;6.50;4.22;;;;;;;;;;10346904;28;20053;-78
2023/06/14 11:22:59;;;;;;;6.43;3.90;;;;;;;;;;10349486;28;20492;-78
2023/06/14 11:28:00;;;;;;;4.28;3.88;;;;;;;;;;10345446;28;20137;-77
2023/06/14 11:33:02;;;;;;;5.53;4.18;;;;;;;;;;10355999;28;20037;-73
2023/06/14 11:38:03;;;;;;;4.73;3.83;;;;;;;;;;10346867;28;20058;-77
2023/06/14 11:43:04;;;;;;;5.85;3.85;;;;;;;;;;10364414;28;20562;-78
2023/06/14 11:48:06;;;;;;;4.85;3.80;;;;;;;;;;10360658;28;20422;-79
2023/06/14 11:53:10;;;;;;;5.27;4.70;;;;;;;;;;10345886;28;20042;-78
2023/06/14 11:58:10;;;;;;;4.20;3.80;;;;;;;;;;10349802;28;20281;-77
2023/06/14 12:03:12;;;;;;;4.72;3.53;;;;;;;;;;10349796;28;20053;-78
2023/06/14 12:08:16;;;;;;;5.38;3.58;;;;;;;;;;10332203;28;20050;-81
2023/06/14 12:13:18;;;;;;;6.03;3.90;;;;;;;;;;10347382;28;20038;-79
2023/06/14 12:18:19;;;;;;;4.30;3.57;;;;;;;;;;10357318;28;20045;-77
2023/06/14 12:23:20;;;;;;;4.13;3.73;;;;;;;;;;10350819;28;20474;-78
2023/06/14 12:28:20;;;;;;;4.27;3.70;;;;;;;;;;10363289;28;20537;-82
2023/06/14 12:33:20;;;;;;;4.63;3.57;;;;;;;;;;10350093;28;20421;-81
2023/06/14 12:38:21;;;;;;;5.27;3.73;;;;;;;;;;10342916;28;20297;-82
2023/06/14 12:43:21;;;;;;;3.97;3.63;;;;;;;;;;10371232;28;20057;-87
2023/06/14 12:48:24;;;;;;;3.50;3.20;;;;;;;;;;10370805;28;20308;-82
2023/06/14 12:53:24;;;;;;;3.95;3.40;;;;;;;;;;10389890;28;20284;-82
2023/06/14 12:58:25;;;;;;;3.70;3.40;;;;;;;;;;10393100;28;20041;-82
2023/06/14 13:03:25;;;;;;;4.37;3.40;;;;;;;;;;10400765;28;20049;-86
2023/06/14 13:08:27;;;;;;;3.87;3.47;;;;;;;;;;10384169;28;20277;-83
2023/06/14 13:13:28;;;;;;;4.00;3.60;;;;;;;;;;10372033;28;20326;-84
2023/06/14 13:18:28;;;;;;;5.80;3.70;;;;;;;;;;10369543;28;20074;-83
2023/06/14 13:23:29;;;;;;;3.78;3.47;;;;;;;;;;10367098;28;20053;-83
2023/06/14 13:28:31;;;;;;;4.85;3.20;;;;;;;;;;10353378;28;20070;-85
2023/06/14 13:33:32;;;;;;;4.78;3.70;;;;;;;;;;10328611;28;20045;-83
2023/06/14 13:38:34;;;;;;;3.95;3.55;;;;;;;;;;10356324;28;20053;-81
2023/06/14 13:43:37;;;;;;;11.70;3.72;;;;;;;;;;10359897;28;20050;-81
2023/06/14 13:48:37;;;;;;;5.70;3.57;;;;;;;;;;10391867;28;20023;-85
2023/06/14 13:53:37;;;;;;;5.63;3.33;;;;;;;;;;10403279;28;20491;-86
2023/06/14 13:58:41;;;;;;;3.60;3.30;;;;;;;;;;10358833;28;20018;-85
2023/06/14 14:03:42;;;;;;;4.32;3.25;;;;;;;;;;10389477;28;20514;-84
2023/06/14 14:08:44;;;;;;;35.22;22.17;;;;;;;;;;10348834;28;20057;-86
2023/06/14 14:13:46;;;;;;;3.70;3.28;;;;;;;;;;10372480;28;20034;-85
2023/06/14 14:19:05;;;;;;;5.72;3.28;;;;;;;;;;10369346;28;20447;-85
2023/06/14 14:24:06;;;;;;;3.83;3.43;;;;;;;;;;10349507;28;20076;-86
2023/06/14 14:29:11;;;;;;;4.28;3.40;;;;;;;;;;10362219;28;20371;-86
2023/06/14 14:34:11;;;;;;;5.13;3.63;;;;;;;;;;10363912;28;20199;-88
2023/06/14 14:39:12;;;;;;;6.95;3.40;;;;;;;;;;10346592;28;20045;-85
2023/06/14 14:44:12;;;;;;;3.93;3.13;;;;;;;;;;10337266;28;20175;-85
2023/06/14 14:49:15;;;;;;;4.60;3.43;;;;;;;;;;10360972;28;20939;-82
2023/06/14 14:54:18;;;;;;;5.90;2.90;;;;;;;;;;10355238;28;20300;-80
2023/06/14 14:59:21;;;;;;;;;;;;;;;;;;10333601;28;20050;-78
2023/06/14 15:04:22;;;;;;;3.10;2.90;;;;;;;;;;10350687;28;19972;-78
2023/06/14 15:09:25;;;;;;;5.72;3.08;;;;;;;;;;10333341;28;20453;-77
2023/06/14 15:14:26;;;;;;;4.97;3.53;;;;;;;;;;10339402;28;20072;-77
2023/06/14 15:19:27;;;;;;;8.67;3.30;;;;;;;;;;10345821;28;20053;-86
2023/06/14 15:24:27;;;;;;;7.38;3.30;;;;;;;;;;10384928;28;20042;-82
2023/06/14 15:29:28;;;;;;;5.10;3.23;;;;;;;;;;10357584;28;20042;-81
2023/06/14 15:34:28;;;;;;;6.88;3.63;;;;;;;;;;10368240;28;20312;-79
2023/06/14 15:39:31;;;;;;;6.88;3.53;;;;;;;;;;10339862;28;20100;-76
2023/06/14 15:44:32;;;;;;;3.15;2.85;;;;;;;;;;10359365;28;20406;-78
2023/06/14 15:49:35;;;;;;;3.47;2.97;;;;;;;;;;10361168;28;20049;-81
2023/06/14 15:54:35;;;;;;;3.67;3.38;;;;;;;;;;10325414;28;20335;-78
2023/06/14 15:59:38;;;;;;;5.68;3.53;;;;;;;;;;10362196;28;20278;-80
2023/06/14 16:04:39;;;;;;;5.43;3.50;;;;;;;;;;10359018;28;20127;-85
2023/06/14 16:09:39;;;;;;;3.63;3.10;;;;;;;;;;10343091;28;20046;-84
2023/06/14 16:14:40;;;;;;;5.75;3.33;;;;;;;;;;10366735;28;20049;-85
2023/06/14 16:19:40;;;;;;;4.28;3.20;;;;;;;;;;10372514;28;20045;-80
2023/06/14 16:24:41;;;;;;;7.18;3.20;;;;;;;;;;10370524;28;20045;-79
2023/06/14 16:29:41;;;;;;;3.08;2.78;;;;;;;;;;10357503;28;20077;-78
2023/06/14 16:34:42;;;;;;;8.90;3.50;;;;;;;;;;10336567;28;20046;-79
2023/06/14 16:39:42;;;;;;;4.32;3.00;;;;;;;;;;10346223;28;20217;-82
2023/06/14 16:44:43;;;;;;;3.40;3.03;;;;;;;;;;10352704;28;20050;-79
2023/06/14 16:49:43;;;;;;;4.23;2.97;;;;;;;;;;10348052;28;20050;-79
2023/06/14 16:54:43;;;;;;;4.27;3.20;;;;;;;;;;10358798;28;20088;-81
2023/06/14 16:59:44;;;;;;;6.32;3.25;;;;;;;;;;10336296;28;20293;-80
2023/06/14 17:04:44;;;;;;;3.60;3.05;;;;;;;;;;10330309;28;20107;-83
2023/06/14 17:09:45;;;;;;;3.00;2.80;;;;;;;;;;10333076;28;20058;-81
2023/06/14 17:14:48;;;;;;;4.68;3.20;;;;;;;;;;10349367;28;20169;-82
2023/06/14 17:19:48;;;;;;;3.25;2.75;;;;;;;;;;10351367;28;20061;-80
2023/06/14 17:24:52;;;;;;;3.80;3.20;;;;;;;;;;10353947;28;20445;-85
2023/06/14 17:29:53;;;;;;;3.55;2.92;;;;;;;;;;10330897;28;20046;-81
2023/06/14 17:34:53;;;;;;;3.33;2.60;;;;;;;;;;10319363;28;20745;-81
2023/06/14 17:39:53;;;;;;;3.13;2.83;;;;;;;;;;10352894;28;20300;-82
2023/06/14 17:50:21;;;;;;;4.85;3.10;;;;;;;;;;10317350;23;20143;-84
2023/06/14 17:55:22;;;;;;;4.22;3.28;;;;;;;;;;10317115;28;20049;-84
2023/06/14 18:00:23;;;;;;;3.67;3.35;;;;;;;;;;10302040;28;20050;-80
2023/06/14 18:05:25;;;;;;;5.40;3.45;;;;;;;;;;10507817;23;20082;-81
2023/06/14 18:10:26;;;;;;;5.85;3.38;;;;;;;;;;10256248;28;20126;-78
2023/06/14 18:15:27;;;;;;;3.70;3.30;;;;;;;;;;10243253;28;20101;-79
2023/06/14 18:20:28;;;;;;;3.80;3.50;;;;;;;;;;10245573;28;20946;-79
2023/06/14 18:25:29;;;;;;;4.17;3.77;;;;;;;;;;10262595;28;20147;-81
2023/06/14 18:30:29;;;;;;;4.40;3.90;;;;;;;;;;10263363;28;20538;-77
2023/06/14 18:35:30;;;;;;;4.88;3.92;;;;;;;;;;10257737;28;20306;-84
2023/06/14 18:40:30;;;;;;;5.40;4.50;;;;;;;;;;10259617;28;20042;-78
2023/06/14 18:45:32;;;;;;;5.20;4.30;;;;;;;;;;10259486;28;20055;-78
2023/06/14 18:50:32;;;;;;;4.10;3.70;;;;;;;;;;10254564;28;20129;-82
2023/06/14 18:55:32;;;;;;;4.80;4.40;;;;;;;;;;10272326;28;20759;-79
2023/06/14 19:00:33;;;;;;;5.23;4.30;;;;;;;;;;10286568;28;20611;-80
2023/06/14 19:05:33;;;;;;;5.22;4.35;;;;;;;;;;10296866;28;20374;-80
2023/06/14 19:10:34;;;;;;;5.57;4.40;;;;;;;;;;10320465;28;20062;-80
2023/06/14 19:15:34;;;;;;;4.47;4.00;;;;;;;;;;10310573;28;20042;-81
2023/06/14 19:20:35;;;;;;;5.60;4.47;;;;;;;;;;10270377;28;20047;-79
2023/06/14 19:25:36;;;;;;;7.97;4.87;;;;;;;;;;10273822;28;20507;-79
2023/06/14 19:30:37;;;;;;;4.97;4.35;;;;;;;;;;10284112;28;20304;-82
2023/06/14 19:35:37;;;;;;;5.13;4.30;;;;;;;;;;10245707;28;20038;-78
2023/06/14 19:40:39;;;;;;;4.80;4.30;;;;;;;;;;10287052;28;20038;-84
2023/06/14 19:45:41;;;;;;;4.90;4.47;;;;;;;;;;10300116;28;20345;-81
2023/06/14 19:50:43;;;;;;;6.78;4.45;;;;;;;;;;10316574;28;20054;-85
2023/06/14 19:55:44;;;;;;;4.90;4.50;;;;;;;;;;10328964;28;20038;-81
2023/06/14 20:00:45;;;;;;;5.13;4.30;;;;;;;;;;10330006;28;20062;-81
2023/06/14 20:05:45;;;;;;;5.43;4.43;;;;;;;;;;10288397;28;20058;-80
2023/06/14 20:10:45;;;;;;;5.17;4.77;;;;;;;;;;10281065;28;20396;-82
2023/06/14 20:15:46;;;;;;;5.80;5.20;;;;;;;;;;10263434;28;20043;-81
2023/06/14 20:20:48;;;;;;;6.30;4.18;;;;;;;;;;10256555;28;20125;-81
2023/06/14 20:25:50;;;;;;;5.15;4.15;;;;;;;;;;10266060;28;20640;-78
2023/06/14 20:30:50;;;;;;;4.35;3.95;;;;;;;;;;10272476;28;20148;-80
2023/06/14 20:35:51;;;;;;;6.38;4.05;;;;;;;;;;10268827;28;20051;-81
2023/06/14 20:40:52;;;;;;;4.30;3.95;;;;;;;;;;10272621;28;20047;-82
2023/06/14 20:45:55;;;;;;;4.32;3.92;;;;;;;;;;10267507;28;20078;-80
2023/06/14 20:50:55;;;;;;;4.18;3.70;;;;;;;;;;10257058;28;20042;-82
2023/06/14 20:55:58;;;;;;;4.40;4.00;;;;;;;;;;10270144;28;20487;-83
2023/06/14 21:00:58;;;;;;;4.80;4.20;;;;;;;;;;10269290;28;20282;-81
2023/06/14 21:05:59;;;;;;;5.80;3.93;;;;;;;;;;10292040;28;20057;-82
2023/06/14 21:10:59;;;;;;;4.22;3.83;;;;;;;;;;10309840;28;20053;-81
2023/06/14 21:16:00;;;;;;;4.28;3.88;;;;;;;;;;10278358;28;20058;-81
2023/06/14 21:21:00;;;;;;;4.15;3.85;;;;;;;;;;10285976;28;20070;-80
2023/06/14 21:26:01;;;;;;;3.93;3.53;;;;;;;;;;10253433;28;20078;-82
2023/06/14 21:31:05;;;;;;;5.13;3.97;;;;;;;;;;10236086;28;20303;-82
2023/06/14 21:36:06;;;;;;;3.90;3.60;;;;;;;;;;10253734;28;20065;-82
2023/06/14 21:41:06;;;;;;;4.15;3.85;;;;;;;;;;10273986;28;20066;-80
2023/06/14 21:46:07;;;;;;;4.10;3.70;;;;;;;;;;10264957;28;20145;-80
2023/06/14 21:51:07;;;;;;;4.00;3.43;;;;;;;;;;10265124;28;20042;-79
2023/06/14 21:56:07;;;;;;;4.03;3.70;;;;;;;;;;10266203;28;20050;-79
2023/06/14 22:01:08;;;;;;;4.30;3.90;;;;;;;;;;10272950;28;20298;-78
2023/06/14 22:06:09;;;;;;;4.38;3.90;;;;;;;;;;10261645;28;20046;-79
2023/06/14 22:11:09;;;;;;;4.00;3.60;;;;;;;;;;10271372;28;20050;-79
2023/06/14 22:16:13;;;;;;;3.72;3.42;;;;;;;;;;10259980;28;20047;-79
2023/06/14 22:21:14;;;;;;;4.10;3.70;;;;;;;;;;10281962;28;20472;-79
2023/06/14 22:26:15;;;;;;;4.20;3.80;;;;;;;;;;10262789;28;20058;-80
2023/06/14 22:31:17;;;;;;;5.03;4.13;;;;;;;;;;10263172;28;20046;-82
2023/06/14 22:36:17;;;;;;;4.70;4.17;;;;;;;;;;10280060;28;20068;-80
2023/06/14 22:41:18;;;;;;;4.73;3.90;;;;;;;;;;10274390;28;20092;-80
2023/06/14 22:46:22;;;;;;;4.10;3.80;;;;;;;;;;10273825;28;20294;-80
2023/06/14 22:51:23;;;;;;;4.20;3.75;;;;;;;;;;10271963;28;20651;-81
2023/06/14 22:56:25;;;;;;;4.60;4.30;;;;;;;;;;10276518;28;20041;-81
2023/06/14 23:01:27;;;;;;;4.93;4.43;;;;;;;;;;10297169;28;20463;-81
2023/06/14 23:06:28;;;;;;;4.43;4.03;;;;;;;;;;10269283;28;20047;-80
2023/06/14 23:11:28;;;;;;;5.20;4.65;;;;;;;;;;10290087;28;20047;-80
2023/06/14 23:16:31;;;;;;;5.25;4.30;;;;;;;;;;10304265;28;20043;-80
2023/06/14 23:21:32;;;;;;;4.55;4.20;;;;;;;;;;10325008;28;20050;-80
2023/06/14 23:26:33;;;;;;;5.35;4.30;;;;;;;;;;10307805;28;20051;-80
2023/06/14 23:31:34;;;;;;;5.15;4.63;;;;;;;;;;10318052;28;20054;-81
2023/06/14 23:36:34;;;;;;;4.72;4.20;;;;;;;;;;10317100;28;20051;-82
2023/06/14 23:41:35;;;;;;;4.97;4.47;;;;;;;;;;10291708;28;20054;-83
2023/06/14 23:46:35;;;;;;;4.47;4.07;;;;;;;;;;10294440;28;20097;-82
2023/06/14 23:51:37;;;;;;;5.07;4.57;;;;;;;;;;10262287;28;20568;-83
2023/06/14 23:56:39;;;;;;;4.75;4.35;;;;;;;;;;10259477;28;20046;-82
